Flight Track Log - Related Links

Times and Time Zones

All times are in EDT time to prevent confusion due to time zone crossing. See the N36WP flight status page for this flight to view local times or setup timezone preferences in your user account.

Time Position Orientation Groundspeed Altitude Reporting Facility
EDT Latitude Longitude Course Direction KTS MPH feet Rate Location/Type
Fri 03:21:00 PM 42.5539 -84.4548 160° South  Level Estimated
Fri 03:22:00 PM 42.5165 -84.4331 144° Southeast  Level Estimated
Fri 03:23:00 PM 42.4790 -84.4113 158° South  Level Estimated
Fri 03:24:00 PM 42.4415 -84.3895 157° South  Level FlightAware Approximate
Fri 03:25:00 PM 42.4040 -84.3679 157° South  Level FlightAware Approximate
Fri 03:26:00 PM 42.3666 -84.3462 157° South  Level FlightAware Approximate
Fri 03:27:00 PM 42.3291 -84.3245 157° South  Level FlightAware Approximate
Fri 03:28:00 PM 42.2916 -84.3029 157° South  Level FlightAware Approximate
Fri 03:29:00 PM 42.2541 -84.2813 157° South  Level FlightAware Approximate
Fri 03:30:00 PM 42.2166 -84.2597 157° South  Level FlightAware Approximate
Fri 03:31:00 PM 42.1791 -84.2382 157° South  Level FlightAware Approximate
Fri 03:32:00 PM 42.1415 -84.2167 157° South  Level FlightAware Approximate
Fri 03:33:00 PM 42.1040 -84.1952 157° South  Level FlightAware Approximate
Fri 03:34:00 PM 42.0665 -84.1737 151° Southeast  Level Estimated
Fri 03:34:43 PM 42.0594 -84.1997 159° South 153 176 9,000  Level Indianapolis Center
Fri 03:35:00 PM 42.0316 -84.1454 149° Southeast  Level FlightAware Approximate
Fri 03:35:45 PM 42.0197 -84.1775 157° South 153 176 9,000  Level Indianapolis Center
Fri 03:36:00 PM 41.9940 -84.1241 160° South  Level Estimated
Fri 03:36:47 PM 41.9819 -84.1519 153° Southeast 153 176 9,000  Level Indianapolis Center
Fri 03:37:00 PM 41.9559 -84.1046 159° South  Level FlightAware Approximate
Fri 03:37:49 PM 41.9403 -84.1297 158° South 154 177 9,000  Level Indianapolis Center
Fri 03:38:00 PM 41.9179 -84.0851 159° South  Level FlightAware Approximate
Fri 03:38:51 PM 41.8997 -84.1064 157° South 156 180 9,000  Level Indianapolis Center
Fri 03:39:00 PM 41.8798 -84.0656 159° South  Level FlightAware Approximate
Fri 03:39:53 PM 41.8600 -84.0844 158° South 155 178 9,000  Level Indianapolis Center
Fri 03:40:00 PM 41.8417 -84.0461 159° South  Level FlightAware Approximate
Fri 03:40:55 PM 41.8203 -84.0594 155° Southeast 155 178 9,000  Level Indianapolis Center
Fri 03:41:57 PM 41.7814 -84.0361 156° South 154 177 9,000  Level Indianapolis Center
Fri 03:42:59 PM 41.7350 -84.0106 158° South 153 176 9,000  Level Indianapolis Center
Fri 03:44:01 PM 41.6967 -83.9881 156° South 152 175 9,000  Level Indianapolis Center
Fri 03:45:03 PM 41.6572 -83.9647 156° South 152 175 9,000  Level Indianapolis Center
Fri 03:46:06 PM 41.6181 -83.9425 157° South 153 176 9,000  Level Indianapolis Center
Fri 03:47:08 PM 41.5794 -83.9194 156° South 152 175 9,000  Level Indianapolis Center
Fri 03:48:10 PM 41.5403 -83.8969 157° South 152 175 9,000  Level Indianapolis Center
Fri 03:49:12 PM 41.4994 -83.8750 158° South 154 177 9,000  Level Indianapolis Center
Fri 03:50:14 PM 41.4525 -83.8472 156° South 156 180 9,000  Level Indianapolis Center
Fri 03:51:16 PM 41.4125 -83.8233 156° South 157 181 9,000  Level Indianapolis Center
Fri 03:52:18 PM 41.3731 -83.8008 157° South 155 178 9,000  Level Indianapolis Center
Fri 03:53:20 PM 41.3325 -83.7781 157° South 155 178 9,000  Level Indianapolis Center
Fri 03:54:22 PM 41.2906 -83.7681 170° South 154 177 9,000  Level Indianapolis Center
Fri 03:55:24 PM 41.2486 -83.7719 184° South 150 173 9,000  Level Indianapolis Center
Fri 03:56:27 PM 41.2094 -83.7819 191° South 144 166 9,000  Level Indianapolis Center
Fri 03:57:28 PM 41.1628 -83.7514 154° Southeast 155 178 9,000  Level Indianapolis Center
Fri 03:58:30 PM 41.1247 -83.7281 155° Southeast 152 175 9,000  Level Indianapolis Center
Fri 03:59:32 PM 41.0856 -83.7014 153° Southeast 155 178 9,000  Level Indianapolis Center
Fri 04:00:34 PM 41.0444 -83.6767 156° South 153 176 9,000  Level Indianapolis Center
Fri 04:01:36 PM 41.0050 -83.6511 154° Southeast 156 180 9,000 48 Level Indianapolis Center
Fri 04:02:38 PM 40.9653 -83.6269 155° Southeast 155 178 9,100  Climbing Indianapolis Center
Fri 04:03:41 PM 40.9261 -83.6011 154° Southeast 155 178 9,000 -48 Descending Indianapolis Center
Fri 04:04:43 PM 40.8864 -83.5764 155° Southeast 157 181 9,000 48 Level Indianapolis Center
Fri 04:05:45 PM 40.8400 -83.5467 154° Southeast 157 181 9,100 -48 Climbing Indianapolis Center
Fri 04:06:47 PM 40.7994 -83.5214 155° Southeast 159 183 8,900 -97 Descending Indianapolis Center
Fri 04:07:49 PM 40.7586 -83.4950 154° Southeast 160 184 8,900  Level Indianapolis Center
Fri 04:08:51 PM 40.7194 -83.4700 154° Southeast 156 180 8,900  Level Indianapolis Center
Fri 04:09:53 PM 40.6803 -83.4464 155° Southeast 155 178 8,900  Level Indianapolis Center
Fri 04:10:55 PM 40.6400 -83.4206 154° Southeast 158 182 8,900  Level Indianapolis Center
Fri 04:11:57 PM 40.6011 -83.3969 155° Southeast 154 177 8,900  Level Indianapolis Center
Fri 04:12:59 PM 40.5642 -83.3744 155° Southeast 148 170 8,900  Level Indianapolis Center
Fri 04:14:01 PM 40.5211 -83.3464 154° Southeast 147 169 8,900  Level Indianapolis Center
Fri 04:15:04 PM 40.4842 -83.3231 154° Southeast 145 167 8,900 -48 Level Indianapolis Center
Fri 04:16:06 PM 40.4478 -83.3003 155° Southeast 144 166 8,800 -387 Descending Indianapolis Center
Fri 04:17:08 PM 40.4083 -83.2775 156° South 149 171 8,100 -677 Descending Indianapolis Center
Fri 04:18:10 PM 40.3639 -83.2481 153° Southeast 169 194 7,400 -774 Descending Indianapolis Center
Fri 04:19:12 PM 40.3203 -83.2222 156° South 171 197 6,500 -919 Descending Indianapolis Center
Fri 04:20:14 PM 40.2775 -83.1947 154° Southeast 170 196 5,500 -1,074 Descending Indianapolis Center
Fri 04:20:47 PM 40.2458 -83.1783 158° South 173 199 4,800 -828 Descending Indianapolis Center
Fri 04:21:41 PM 40.2058 -83.1519 153° Southeast 177 204 4,300 -330 Descending Indianapolis Center
Fri 04:22:18 PM 40.1847 -83.1372 152° Southeast 168 193 4,300 -242 Level Indianapolis Center
Fri 04:23:20 PM 40.1553 -83.1194 155° Southeast 139 160 3,900 -393 Descending Indianapolis Center
Fri 04:24:20 PM 40.1367 -83.0919 132° Southeast 119 137 3,500 -677 Descending Indianapolis Center
Fri 04:25:24 PM 40.1278 -83.0456 104° East 128 147 2,500 -952 Descending Indianapolis Center
Fri 04:26:26 PM 40.0933 -83.0364 168° South 130 150 1,500 -629 Descending Indianapolis Center
Fri 04:27:28 PM 40.0636 -83.0469 195° South 122 140 1,200 -290 Descending Indianapolis Center
Fri 04:29:00 PM 40.0667 -83.0667 303° West  Level FlightAware Approximate

Login

Don't have an account? Register now (free) for customized features, flight alerts, and more!